Terminal Aerodrome Forecast
Issued by NWS

Home | Current Version | Previous Version | Graphics & Text | Print | Product List | Glossary On
Versions: 1 2 3 4 5 6 7 8 9 10 11 12 13 14 15
000
FTUS45 KGGW 212328
TAFSDY
TAF
KSDY 212328Z 2200/2224 VRB05KT P6SM SKC
     FM221500 VRB03KT P6SM SCT120
     FM221800 09006KT P6SM -SHRA BKN120
     FM222000 03006KT P6SM BKN070 PROB30 2220/2224 -TSRA OVC070CB=

USA.gov is the U.S. government's official web portal to all federal, state and local government web resources and services.